Time;durP1;ratioP1;P1;durP2;ratioP2;P2;SDS_P1;SDS_P2;PMS_P1;PMS_P2;Temp;Humidity;BMP_temperature;BMP_pressure;BME280_temperature;BME280_humidity;BME280_pressure;Samples;Min_cycle;Max_cycle;Signal;HPM_P1;HPM_P2
2021/11/17 02:30:23;;;;;;;7.73;6.93;;;9.20;46.90;;;;;;10416238;28;20772;-74
2021/11/17 02:35:40;;;;;;;7.87;7.07;;;9.20;46.90;;;;;;10413285;28;20724;-72
2021/11/17 02:40:58;;;;;;;7.47;6.77;;;9.20;47.00;;;;;;10417835;28;20260;-71
2021/11/17 02:46:13;;;;;;;9.10;8.00;;;9.20;47.00;;;;;;10415231;28;20322;-72
2021/11/17 02:51:50;;;;;;;8.83;7.93;;;9.20;46.90;;;;;;10413322;28;20267;-72
2021/11/17 02:57:12;;;;;;;8.93;8.00;;;9.20;46.90;;;;;;10413457;28;20377;-72
2021/11/17 03:02:36;;;;;;;8.37;7.57;;;9.10;47.00;;;;;;10414507;28;20225;-72
2021/11/17 03:07:53;;;;;;;9.23;8.33;;;9.00;47.10;;;;;;10413038;28;20233;-72
2021/11/17 03:13:19;;;;;;;9.03;8.13;;;9.00;47.20;;;;;;10408334;28;20229;-71
2021/11/17 03:18:43;;;;;;;9.47;8.57;;;9.00;47.20;;;;;;10414406;28;20237;-72
2021/11/17 03:29:28;;;;;;;9.67;8.67;;;9.00;47.10;;;;;;10410459;28;20225;-74
2021/11/17 03:34:50;;;;;;;9.33;8.43;;;9.00;47.30;;;;;;10417541;28;20332;-73
2021/11/17 03:40:12;;;;;;;9.57;8.57;;;9.00;47.40;;;;;;10411270;28;20225;-73
2021/11/17 03:45:38;;;;;;;9.50;8.60;;;9.00;47.40;;;;;;10414838;28;20221;-73
2021/11/17 03:51:06;;;;;;;8.90;8.07;;;9.00;47.20;;;;;;10411876;28;20223;-73
2021/11/17 03:56:46;;;;;;;9.30;8.33;;;9.00;47.20;;;;;;10415112;28;20223;-73
2021/11/17 04:02:04;;;;;;;10.10;9.10;;;9.00;47.30;;;;;;10377656;28;20327;-73
2021/11/17 04:07:37;;;;;;;9.50;8.60;;;9.00;47.70;;;;;;10413962;28;20216;-73
2021/11/17 04:12:53;;;;;;;10.03;9.03;;;9.00;47.40;;;;;;10412284;28;20602;-73
2021/11/17 04:18:07;;;;;;;10.77;9.67;;;9.00;47.20;;;;;;10415613;28;20225;-73
2021/11/17 04:23:27;;;;;;;11.77;10.57;;;9.00;47.20;;;;;;10414062;28;20278;-70
2021/11/17 04:28:46;;;;;;;11.23;10.13;;;8.90;47.30;;;;;;10423793;28;20655;-70
2021/11/17 04:34:14;;;;;;;10.10;9.10;;;8.90;47.30;;;;;;10426093;28;20758;-70
2021/11/17 04:39:46;;;;;;;10.87;9.77;;;8.90;47.40;;;;;;10418054;28;20228;-69
2021/11/17 04:45:06;;;;;;;10.93;9.80;;;8.90;47.60;;;;;;10420371;28;20323;-70
2021/11/17 04:50:34;;;;;;;10.83;9.73;;;8.90;47.50;;;;;;10413645;28;20659;-71
2021/11/17 04:55:54;;;;;;;11.20;9.93;;;8.90;47.30;;;;;;10415101;28;20244;-71
2021/11/17 05:01:13;;;;;;;13.60;10.90;;;8.90;47.40;;;;;;10407496;28;20304;-71
2021/11/17 05:06:33;;;;;;;11.73;10.53;;;8.90;47.40;;;;;;10410890;28;20701;-71
2021/11/17 05:11:47;;;;;;;10.60;9.60;;;9.00;47.50;;;;;;10408748;28;20234;-71
2021/11/17 05:17:04;;;;;;;9.33;8.40;;;9.00;47.30;;;;;;10411202;28;20225;-71
2021/11/17 05:22:21;;;;;;;11.13;10.03;;;9.00;47.30;;;;;;10411572;28;20221;-70
2021/11/17 05:27:43;;;;;;;10.60;9.50;;;9.00;47.30;;;;;;10410061;28;20242;-71
2021/11/17 05:33:03;;;;;;;11.53;10.33;;;9.10;47.30;;;;;;10413652;28;20221;-70
2021/11/17 05:38:20;;;;;;;9.60;8.70;;;9.10;47.20;;;;;;10407719;28;20217;-70
2021/11/17 05:43:35;;;;;;;10.97;9.57;;;9.10;47.30;;;;;;10414568;28;20229;-70
2021/11/17 05:48:48;;;;;;;10.73;9.50;;;9.20;47.40;;;;;;10413453;28;20220;-71
2021/11/17 05:54:09;;;;;;;12.17;11.00;;;9.20;47.10;;;;;;10405724;28;20527;-71
2021/11/17 05:59:34;;;;;;;11.87;10.70;;;9.20;47.10;;;;;;10408558;28;20436;-71
2021/11/17 06:04:37;;;;;;;12.47;10.37;;;9.30;47.10;;;;;;10417149;28;20586;-71
2021/11/17 06:09:40;;;;;;;12.20;11.00;;;9.30;46.80;;;;;;10422375;28;20628;-71
2021/11/17 06:14:48;;;;;;;14.10;11.57;;;9.30;46.80;;;;;;10411039;28;20228;-70
2021/11/17 06:19:56;;;;;;;12.17;10.97;;;9.30;47.20;;;;;;10412245;28;20235;-70
2021/11/17 06:25:01;;;;;;;11.93;10.73;;;9.40;47.30;;;;;;10414963;28;20229;-70
2021/11/17 06:30:10;;;;;;;11.83;10.57;;;9.40;46.90;;;;;;10404933;28;20597;-70
2021/11/17 06:35:16;;;;;;;11.40;10.30;;;9.40;46.90;;;;;;10408977;28;20609;-71
2021/11/17 06:40:22;;;;;;;13.10;11.33;;;9.40;46.90;;;;;;10409746;28;20237;-73
2021/11/17 06:45:35;;;;;;;14.13;12.80;;;9.40;46.70;;;;;;10414831;28;20229;-69
2021/11/17 06:50:41;;;;;;;20.67;18.53;;;9.40;46.60;;;;;;10411972;28;20744;-70
2021/11/17 06:55:45;;;;;;;17.67;15.80;;;9.30;46.70;;;;;;10409604;28;20241;-70
2021/11/17 07:00:51;;;;;;;14.40;12.60;;;9.30;46.80;;;;;;10416751;28;20257;-70
2021/11/17 07:05:55;;;;;;;13.73;12.37;;;9.30;46.60;;;;;;10413826;28;20704;-71
2021/11/17 07:10:58;;;;;;;14.40;12.90;;;9.30;47.00;;;;;;10413117;28;20233;-71
2021/11/17 07:16:03;;;;;;;13.33;12.03;;;9.30;47.00;;;;;;10402764;28;20230;-70
2021/11/17 07:21:07;;;;;;;13.97;12.57;;;9.30;47.00;;;;;;10409776;28;20600;-70
2021/11/17 07:26:11;;;;;;;12.33;11.13;;;9.30;47.00;;;;;;10405542;28;21026;-70
2021/11/17 07:31:15;;;;;;;11.03;9.90;;;9.30;46.80;;;;;;10406652;28;20739;-70
2021/11/17 07:36:21;;;;;;;12.50;11.30;;;9.30;47.70;;;;;;10404287;28;20760;-70
2021/11/17 07:41:24;;;;;;;13.77;12.37;;;9.40;46.80;;;;;;10407006;28;20306;-71
2021/11/17 07:46:28;;;;;;;12.20;11.10;;;9.40;46.80;;;;;;10408901;28;20221;-71
2021/11/17 07:51:32;;;;;;;12.13;10.90;;;9.40;46.80;;;;;;10403723;28;20214;-71
2021/11/17 07:56:36;;;;;;;12.63;10.93;;;9.30;46.80;;;;;;10410261;28;20237;-71
2021/11/17 08:01:45;;;;;;;11.67;10.47;;;9.30;46.90;;;;;;10421135;28;20234;-71
2021/11/17 08:06:49;;;;;;;11.90;10.77;;;9.30;46.60;;;;;;10421669;28;20233;-71
2021/11/17 08:11:52;;;;;;;11.77;10.57;;;9.30;46.80;;;;;;10418248;28;20221;-73
2021/11/17 08:16:57;;;;;;;12.30;10.80;;;9.30;47.00;;;;;;10411370;28;20221;-73
2021/11/17 08:22:06;;;;;;;12.93;11.63;;;9.30;47.00;;;;;;10421984;28;20233;-73
2021/11/17 08:27:12;;;;;;;11.53;10.33;;;9.30;47.10;;;;;;10423847;28;20671;-73
2021/11/17 08:32:21;;;;;;;11.60;10.40;;;9.40;47.30;;;;;;10421915;28;20732;-73
2021/11/17 08:37:25;;;;;;;11.00;9.90;;;9.40;47.10;;;;;;10423184;28;20308;-73
2021/11/17 08:42:28;;;;;;;12.90;9.77;;;9.50;47.10;;;;;;10420736;28;20599;-71
2021/11/17 08:47:32;;;;;;;10.80;9.70;;;9.50;46.80;;;;;;10417732;28;20224;-71
2021/11/17 08:52:36;;;;;;;9.70;8.70;;;9.50;46.80;;;;;;10419326;28;20227;-70
2021/11/17 08:57:40;;;;;;;10.97;9.80;;;9.50;46.80;;;;;;10415070;28;20221;-71
2021/11/17 09:02:46;;;;;;;11.70;10.50;;;9.50;46.90;;;;;;10415415;28;20218;-70
2021/11/17 09:07:49;;;;;;;13.03;11.77;;;9.50;46.90;;;;;;10417190;28;20228;-70
2021/11/17 09:12:53;;;;;;;10.93;9.87;;;9.60;47.00;;;;;;10418461;28;20560;-70
2021/11/17 09:17:59;;;;;;;14.33;11.53;;;9.60;47.00;;;;;;10419027;28;20228;-70
2021/11/17 09:23:03;;;;;;;16.63;14.93;;;9.50;46.80;;;;;;10417612;28;20766;-72
2021/11/17 09:28:08;;;;;;;12.50;11.30;;;9.50;46.90;;;;;;10445195;23;20227;-69
2021/11/17 09:33:14;;;;;;;10.33;9.23;;;9.50;47.00;;;;;;10455018;28;20224;-70
2021/11/17 09:38:18;;;;;;;10.47;9.47;;;9.50;46.80;;;;;;10457435;28;20232;-69
2021/11/17 09:43:24;;;;;;;10.07;9.03;;;9.60;46.90;;;;;;10428497;28;20225;-69
2021/11/17 09:48:32;;;;;;;9.63;8.63;;;9.60;47.00;;;;;;10417789;28;20233;-69
2021/11/17 09:53:41;;;;;;;9.00;8.13;;;9.60;47.40;;;;;;10421997;28;20228;-69
2021/11/17 09:58:48;;;;;;;8.93;8.03;;;9.50;46.70;;;;;;10424753;28;20233;-69
2021/11/17 10:04:01;;;;;;;8.20;7.33;;;9.50;46.90;;;;;;10421036;28;20227;-70
2021/11/17 10:14:35;;;;;;;9.73;8.43;;;9.60;46.90;;;;;;10429244;28;20584;-70
2021/11/17 10:19:40;;;;;;;10.13;8.50;;;9.60;46.70;;;;;;10428560;28;20233;-70
2021/11/17 10:24:47;;;;;;;8.70;7.90;;;9.50;46.60;;;;;;10421918;28;20221;-69
2021/11/17 10:29:56;;;;;;;9.57;8.57;;;9.40;46.80;;;;;;10426978;28;20592;-69
2021/11/17 10:35:07;;;;;;;9.47;8.57;;;9.30;46.90;;;;;;10435628;28;20228;-69
2021/11/17 10:40:16;;;;;;;9.07;8.17;;;9.30;47.10;;;;;;10421922;28;20228;-70
2021/11/17 10:45:26;;;;;;;9.33;8.43;;;9.30;47.00;;;;;;10428046;28;20283;-69
2021/11/17 10:50:34;;;;;;;9.27;8.33;;;9.30;47.40;;;;;;10421985;28;20230;-70
2021/11/17 10:55:40;;;;;;;8.93;8.13;;;9.30;47.50;;;;;;10420494;28;20221;-70
2021/11/17 11:00:47;;;;;;;9.67;8.67;;;9.30;47.30;;;;;;10421702;28;20236;-69
2021/11/17 11:05:54;;;;;;;8.47;7.67;;;9.30;47.30;;;;;;10418174;28;20706;-70
2021/11/17 11:11:00;;;;;;;9.40;8.50;;;9.40;47.40;;;;;;10427315;28;20241;-69
2021/11/17 11:16:13;;;;;;;7.83;7.10;;;9.40;47.30;;;;;;10426581;28;20703;-69
2021/11/17 11:21:36;;;;;;;8.30;7.50;;;9.40;47.00;;;;;;10439237;28;20276;-69
2021/11/17 11:27:18;;;;;;;8.40;7.50;;;9.40;47.30;;;;;;10427802;28;20325;-70
2021/11/17 11:32:45;;;;;;;7.70;6.67;;;9.40;47.10;;;;;;10423331;28;20703;-69
2021/11/17 11:38:07;;;;;;;7.93;7.23;;;9.50;47.10;;;;;;10427018;28;20229;-69
2021/11/17 11:43:21;;;;;;;7.20;6.50;;;9.50;47.00;;;;;;10436275;28;20227;-70
2021/11/17 11:49:06;;;;;;;7.90;7.13;;;9.50;47.10;;;;;;10427845;28;20233;-70
2021/11/17 11:54:16;;;;;;;7.57;6.90;;;9.50;46.80;;;;;;10437894;28;20216;-69
2021/11/17 11:59:24;;;;;;;7.63;6.97;;;9.60;47.10;;;;;;10429755;28;20236;-69
2021/11/17 12:04:27;;;;;;;7.70;7.00;;;9.60;47.00;;;;;;10425747;28;20232;-69
2021/11/17 12:09:35;;;;;;;9.27;8.33;;;9.60;47.10;;;;;;10431219;28;20224;-69
2021/11/17 12:14:45;;;;;;;9.20;8.30;;;9.60;47.00;;;;;;10420014;28;20231;-69
2021/11/17 12:19:53;;;;;;;9.70;8.70;;;9.50;46.80;;;;;;10429519;28;20259;-69
2021/11/17 12:25:13;;;;;;;9.20;8.30;;;9.50;46.90;;;;;;10422609;28;20228;-69
2021/11/17 12:30:30;;;;;;;6.63;6.03;;;9.50;47.10;;;;;;10420810;28;20220;-69
2021/11/17 12:35:36;;;;;;;7.20;6.53;;;9.50;47.10;;;;;;10429873;28;20220;-69
2021/11/17 12:40:44;;;;;;;6.53;5.93;;;9.50;47.10;;;;;;10425049;28;20225;-69
2021/11/17 12:46:00;;;;;;;7.40;5.97;;;9.50;47.10;;;;;;10436741;28;20713;-69
2021/11/17 12:51:08;;;;;;;6.80;6.00;;;9.50;47.00;;;;;;10431386;28;20290;-69
2021/11/17 12:56:19;;;;;;;6.43;5.83;;;9.60;47.10;;;;;;10427939;28;20229;-69
2021/11/17 13:01:34;;;;;;;8.97;8.03;;;9.60;46.90;;;;;;10424781;28;20237;-69
2021/11/17 13:06:52;;;;;;;6.10;5.50;;;9.60;46.90;;;;;;10428194;28;20692;-69
2021/11/17 13:12:12;;;;;;;7.00;6.40;;;9.60;47.10;;;;;;10434184;28;20303;-69
2021/11/17 13:17:20;;;;;;;6.63;6.03;;;9.70;47.20;;;;;;10437935;28;20228;-69
2021/11/17 13:22:31;;;;;;;7.80;5.47;;;9.70;47.00;;;;;;10434861;28;20246;-69
2021/11/17 13:27:44;;;;;;;6.63;5.93;;;9.70;47.00;;;;;;10433921;28;20232;-69
2021/11/17 13:32:49;;;;;;;7.27;6.40;;;9.70;47.00;;;;;;10430305;28;20232;-70
2021/11/17 13:38:13;;;;;;;6.47;5.87;;;9.70;47.10;;;;;;10431551;28;20236;-69
2021/11/17 13:43:18;;;;;;;5.73;5.23;;;9.70;47.00;;;;;;10429841;28;20241;-70
2021/11/17 13:48:26;;;;;;;5.83;5.33;;;9.70;47.00;;;;;;10435569;28;20237;-69
2021/11/17 13:53:30;;;;;;;4.40;4.07;;;9.70;47.00;;;;;;10435803;28;20688;-69
2021/11/17 13:58:34;;;;;;;5.00;4.40;;;9.70;46.80;;;;;;10430792;28;20232;-70
2021/11/17 14:03:38;;;;;;;4.37;3.73;;;9.70;46.80;;;;;;10435837;28;20229;-69
2021/11/17 14:08:41;;;;;;;4.33;3.93;;;9.80;46.70;;;;;;10425278;28;20712;-69
2021/11/17 14:13:47;;;;;;;5.13;4.17;;;9.80;46.80;;;;;;10433558;28;20225;-69
2021/11/17 14:18:50;;;;;;;4.00;3.70;;;9.80;46.70;;;;;;10435290;28;20232;-70
2021/11/17 14:23:54;;;;;;;9.53;8.17;;;9.80;46.70;;;;;;10430688;28;20732;-69
2021/11/17 14:29:03;;;;;;;5.03;4.37;;;9.80;46.60;;;;;;10434042;28;20225;-69
2021/11/17 14:34:07;;;;;;;4.87;4.40;;;9.80;46.60;;;;;;10430190;28;20224;-70
2021/11/17 14:39:10;;;;;;;4.47;4.07;;;9.80;46.80;;;;;;10430082;28;20217;-69
2021/11/17 14:44:15;;;;;;;4.50;4.10;;;9.80;46.80;;;;;;10428834;28;20225;-70
2021/11/17 14:49:19;;;;;;;3.93;3.63;;;9.80;46.60;;;;;;10427826;28;20225;-69
2021/11/17 14:54:22;;;;;;;4.40;4.00;;;9.80;46.80;;;;;;10425247;28;20235;-70
2021/11/17 14:59:27;;;;;;;4.13;3.83;;;9.80;46.60;;;;;;10433844;28;20237;-69
2021/11/17 15:04:34;;;;;;;8.07;7.23;;;9.80;46.60;;;;;;10431476;28;20224;-69
2021/11/17 15:09:38;;;;;;;8.37;7.33;;;9.80;46.60;;;;;;10433500;28;20232;-69
2021/11/17 15:14:44;;;;;;;6.23;5.63;;;9.80;46.60;;;;;;10426684;28;20570;-69
2021/11/17 15:19:47;;;;;;;4.73;4.20;;;9.70;46.60;;;;;;10433266;28;20596;-69
2021/11/17 15:24:51;;;;;;;4.17;3.77;;;9.80;46.60;;;;;;10441320;28;20229;-69
2021/11/17 15:35:06;;;;;;;3.80;3.50;;;9.70;46.60;;;;;;10460079;28;20225;-69
2021/11/17 15:40:14;;;;;;;3.50;3.30;;;9.60;46.50;;;;;;10450560;28;20240;-69
2021/11/17 15:45:18;;;;;;;4.50;3.30;;;9.60;46.50;;;;;;10443019;28;20235;-70
2021/11/17 15:50:27;;;;;;;3.63;3.33;;;9.60;46.50;;;;;;10435840;28;20233;-70
2021/11/17 15:55:30;;;;;;;4.47;3.40;;;9.60;46.50;;;;;;10440454;28;20220;-70
2021/11/17 16:00:35;;;;;;;3.53;3.03;;;9.60;46.50;;;;;;10440636;28;20232;-69
2021/11/17 16:05:39;;;;;;;3.53;3.23;;;9.60;46.50;;;;;;10443063;28;20219;-70
2021/11/17 16:10:43;;;;;;;3.80;3.50;;;9.60;46.50;;;;;;10440661;28;20224;-70
2021/11/17 16:15:46;;;;;;;3.70;3.30;;;9.70;46.60;;;;;;10437908;28;20228;-70
2021/11/17 16:20:55;;;;;;;3.10;2.77;;;9.70;46.60;;;;;;10442524;28;20308;-70
2021/11/17 16:26:03;;;;;;;3.63;3.33;;;9.70;46.60;;;;;;10441617;28;20237;-69
2021/11/17 16:31:07;;;;;;;3.87;3.57;;;9.70;46.60;;;;;;10436437;28;20274;-69
2021/11/17 16:36:12;;;;;;;4.10;3.70;;;9.70;46.60;;;;;;10436651;28;20233;-69
2021/11/17 16:41:17;;;;;;;3.83;3.53;;;9.70;46.60;;;;;;10444102;28;20839;-69
2021/11/17 16:46:20;;;;;;;4.60;4.20;;;9.60;46.80;;;;;;10444678;28;20304;-69
2021/11/17 16:52:09;;;;;;;5.27;4.43;;;9.70;46.80;;;;;;10431871;28;20229;-69
2021/11/17 16:57:13;;;;;;;4.90;4.30;;;9.70;46.60;;;;;;10440773;28;20221;-69
2021/11/17 17:02:17;;;;;;;5.80;5.20;;;9.70;46.60;;;;;;10436657;28;20239;-72
2021/11/17 17:07:24;;;;;;;4.30;4.00;;;9.70;46.60;;;;;;10441199;28;20236;-69
2021/11/17 17:12:28;;;;;;;4.00;3.63;;;9.60;46.60;;;;;;10441134;28;21278;-72
2021/11/17 17:17:31;;;;;;;3.67;3.37;;;9.60;46.60;;;;;;10436861;28;20233;-70
2021/11/17 17:22:36;;;;;;;3.47;3.17;;;9.60;46.50;;;;;;10438086;28;20229;-71
2021/11/17 17:27:41;;;;;;;3.73;3.43;;;9.60;46.60;;;;;;10426873;28;20221;-71
2021/11/17 17:32:44;;;;;;;4.87;3.70;;;9.60;46.60;;;;;;10429322;28;20228;-70
2021/11/17 17:37:49;;;;;;;4.27;3.97;;;9.60;46.50;;;;;;10429140;28;20263;-70
2021/11/17 17:42:52;;;;;;;4.97;4.33;;;9.50;46.60;;;;;;10427853;28;20226;-70
2021/11/17 17:47:56;;;;;;;4.50;4.20;;;9.50;46.40;;;;;;10429898;28;20234;-70
2021/11/17 17:53:01;;;;;;;9.70;8.80;;;9.50;46.40;;;;;;10427920;28;20612;-70
2021/11/17 17:58:05;;;;;;;6.00;5.50;;;9.50;46.40;;;;;;10436813;28;20259;-69
2021/11/17 18:03:08;;;;;;;6.40;5.87;;;9.50;46.50;;;;;;10447298;28;20231;-69
2021/11/17 18:08:14;;;;;;;6.27;5.67;;;9.50;46.70;;;;;;10437309;28;20249;-72
2021/11/17 18:13:19;;;;;;;5.13;4.63;;;9.60;46.90;;;;;;10436882;28;20243;-72
2021/11/17 18:18:24;;;;;;;5.30;4.80;;;9.60;46.70;;;;;;10440392;28;20248;-70
2021/11/17 18:23:29;;;;;;;4.80;4.40;;;9.60;46.50;;;;;;10440419;28;20233;-70
2021/11/17 18:28:32;;;;;;;4.13;3.73;;;9.60;46.50;;;;;;10444163;28;20244;-70
2021/11/17 18:33:36;;;;;;;4.17;3.77;;;9.60;46.50;;;;;;10439987;28;20233;-70
2021/11/17 18:38:41;;;;;;;4.53;3.47;;;9.50;46.40;;;;;;10440944;28;20228;-69
2021/11/17 18:43:44;;;;;;;3.90;3.60;;;9.50;46.60;;;;;;10444010;28;20221;-69
2021/11/17 18:48:47;;;;;;;4.07;3.30;;;9.50;46.60;;;;;;10440822;28;20244;-69
2021/11/17 18:53:53;;;;;;;5.47;3.93;;;9.50;46.80;;;;;;10440508;28;20217;-69
2021/11/17 18:58:56;;;;;;;4.57;4.17;;;9.50;47.00;;;;;;10435632;28;20237;-69
2021/11/17 19:04:01;;;;;;;6.20;5.60;;;9.50;47.00;;;;;;10438255;28;20237;-70
2021/11/17 19:09:06;;;;;;;3.80;3.43;;;9.50;47.00;;;;;;10441767;28;20236;-70
2021/11/17 19:14:09;;;;;;;5.60;4.77;;;9.50;46.90;;;;;;10443588;28;20217;-70
2021/11/17 19:19:15;;;;;;;5.03;4.43;;;9.60;46.90;;;;;;10445931;28;20731;-70
2021/11/17 19:24:20;;;;;;;4.40;4.00;;;9.60;47.00;;;;;;10428469;28;20233;-70
2021/11/17 19:29:24;;;;;;;4.77;4.37;;;9.60;46.80;;;;;;10427590;28;20232;-72
2021/11/17 19:34:29;;;;;;;5.47;4.97;;;9.60;46.50;;;;;;10426780;28;20229;-71
2021/11/17 19:39:32;;;;;;;10.07;7.63;;;9.50;46.40;;;;;;10424673;28;20231;-71
2021/11/17 19:44:37;;;;;;;6.63;5.90;;;9.40;46.60;;;;;;10426073;28;20225;-71
2021/11/17 19:49:42;;;;;;;13.43;10.57;;;9.30;46.80;;;;;;10427702;28;20232;-69
2021/11/17 19:54:46;;;;;;;8.50;7.70;;;9.20;47.00;;;;;;10428317;28;20410;-70
2021/11/17 19:59:52;;;;;;;11.07;9.00;;;9.20;47.10;;;;;;10427873;28;20240;-70
2021/11/17 20:04:56;;;;;;;6.70;6.00;;;9.20;47.30;;;;;;10429518;28;20228;-70
2021/11/17 20:10:00;;;;;;;8.40;7.50;;;9.20;47.20;;;;;;10429970;28;20225;-70
2021/11/17 20:15:07;;;;;;;16.13;11.83;;;9.20;47.10;;;;;;10426654;28;20487;-69
2021/11/17 20:20:13;;;;;;;9.23;8.33;;;9.20;47.20;;;;;;10427903;28;20229;-70
2021/11/17 20:25:17;;;;;;;8.13;7.13;;;9.20;47.10;;;;;;10428064;28;20228;-69
2021/11/17 20:30:21;;;;;;;7.93;7.13;;;9.20;47.80;;;;;;10429946;28;20233;-69
2021/11/17 20:35:27;;;;;;;7.87;7.10;;;9.30;47.20;;;;;;10432051;28;20235;-70
2021/11/17 20:40:31;;;;;;;7.60;6.83;;;9.30;47.30;;;;;;10430566;28;20229;-69
2021/11/17 20:45:39;;;;;;;7.80;7.10;;;9.30;47.20;;;;;;10425957;28;20570;-69
2021/11/17 20:50:44;;;;;;;7.10;6.40;;;9.40;47.00;;;;;;10421941;28;20475;-69
2021/11/17 20:55:49;;;;;;;6.00;5.50;;;9.40;47.00;;;;;;10419917;28;20693;-69
2021/11/17 21:00:55;;;;;;;6.90;6.27;;;9.40;46.90;;;;;;10421871;28;20380;-69
2021/11/17 21:06:00;;;;;;;6.93;6.37;;;9.40;46.80;;;;;;10419823;28;20269;-69
2021/11/17 21:11:06;;;;;;;6.20;5.63;;;9.40;46.80;;;;;;10421316;28;20226;-70
2021/11/17 21:16:10;;;;;;;6.03;5.50;;;9.30;46.80;;;;;;10419926;28;20217;-69
2021/11/17 21:21:16;;;;;;;5.90;5.40;;;9.30;46.80;;;;;;10418044;28;20313;-70
2021/11/17 21:26:20;;;;;;;5.30;4.80;;;9.20;46.40;;;;;;10423786;28;20237;-70
2021/11/17 21:31:23;;;;;;;5.83;5.27;;;9.30;46.60;;;;;;10421714;28;20233;-69
2021/11/17 21:36:29;;;;;;;5.23;4.83;;;9.30;46.50;;;;;;10432372;28;20225;-70
2021/11/17 21:41:32;;;;;;;6.10;5.50;;;9.30;46.60;;;;;;10423522;28;20578;-70
2021/11/17 21:46:36;;;;;;;5.73;5.23;;;9.30;46.60;;;;;;10431764;28;20226;-70
2021/11/17 21:51:40;;;;;;;5.60;5.10;;;9.30;46.70;;;;;;10428955;28;20224;-70
2021/11/17 21:56:44;;;;;;;4.80;4.40;;;9.30;46.70;;;;;;10427557;28;20221;-70
2021/11/17 22:01:47;;;;;;;5.77;5.27;;;9.30;46.70;;;;;;10429421;28;20252;-69
2021/11/17 22:06:52;;;;;;;5.47;4.97;;;9.40;46.80;;;;;;10426137;28;20320;-69
2021/11/17 22:11:56;;;;;;;6.10;5.60;;;9.40;46.70;;;;;;10432701;28;20222;-69
2021/11/17 22:16:59;;;;;;;5.93;5.40;;;9.40;46.60;;;;;;10427840;28;20312;-69
2021/11/17 22:22:04;;;;;;;5.87;5.37;;;9.40;46.30;;;;;;10424829;28;20224;-69
2021/11/17 22:27:09;;;;;;;6.33;5.57;;;9.40;46.30;;;;;;10429454;28;20259;-69
2021/11/17 22:32:12;;;;;;;5.77;5.27;;;9.40;46.40;;;;;;10424101;28;20213;-70
2021/11/17 22:37:19;;;;;;;6.03;5.43;;;9.40;46.50;;;;;;10416894;28;20328;-69
2021/11/17 22:42:22;;;;;;;5.13;4.73;;;9.40;46.30;;;;;;10419918;28;20700;-70
2021/11/17 22:47:26;;;;;;;6.47;5.87;;;9.40;46.60;;;;;;10421421;28;20724;-70
2021/11/17 22:52:31;;;;;;;6.13;5.53;;;9.40;46.60;;;;;;10418161;28;20229;-70
2021/11/17 22:57:34;;;;;;;7.03;6.40;;;9.30;46.60;;;;;;10421369;28;20715;-70
2021/11/17 23:02:37;;;;;;;6.17;5.67;;;9.30;46.40;;;;;;10419304;28;20235;-69
2021/11/17 23:07:42;;;;;;;6.47;5.87;;;9.30;46.40;;;;;;10419487;28;20255;-70
2021/11/17 23:12:49;;;;;;;7.03;6.33;;;9.30;46.60;;;;;;10422797;28;20224;-69
2021/11/17 23:17:53;;;;;;;7.00;6.30;;;9.20;46.60;;;;;;10422775;28;20892;-71
2021/11/17 23:23:00;;;;;;;6.63;5.93;;;9.20;46.70;;;;;;10417443;28;23494;-70
2021/11/17 23:28:04;;;;;;;6.93;6.33;;;9.20;46.70;;;;;;10424782;28;20236;-70
2021/11/17 23:33:08;;;;;;;6.47;5.87;;;9.20;46.70;;;;;;10441594;28;20236;-70
2021/11/17 23:38:14;;;;;;;7.57;6.43;;;9.10;46.80;;;;;;10440810;28;20231;-69
2021/11/17 23:43:18;;;;;;;6.70;6.10;;;9.10;47.00;;;;;;10439081;28;20248;-70
2021/11/17 23:48:23;;;;;;;6.63;6.03;;;9.10;46.90;;;;;;10445166;28;20712;-69
2021/11/17 23:53:31;;;;;;;7.20;6.50;;;9.10;47.00;;;;;;10441676;28;20303;-69
2021/11/17 23:58:35;;;;;;;7.20;6.50;;;9.10;47.00;;;;;;10444636;28;20240;-69
